createdAt,value
2022-10-19T04:01:51.839Z,75.97
2022-10-19T04:06:01.935Z,76.06
2022-10-19T04:10:05.164Z,75.98
2022-10-19T04:18:17.027Z,75.46
2022-10-19T04:22:19.650Z,75.46
2022-10-19T04:26:22.314Z,75.29
2022-10-19T04:30:24.894Z,74.97
2022-10-19T04:34:28.884Z,75.10
2022-10-19T04:38:31.529Z,75.40
2022-10-19T04:42:34.163Z,74.99
2022-10-19T04:46:37.375Z,74.90
2022-10-19T04:50:41.722Z,74.67
2022-10-19T04:54:44.317Z,74.38
2022-10-19T04:58:47.704Z,74.72
2022-10-19T05:02:50.313Z,75.13
2022-10-19T05:06:54.278Z,74.80
2022-10-19T05:11:02.027Z,74.69
2022-10-19T05:15:05.246Z,74.86
2022-10-19T05:19:07.859Z,74.73
2022-10-19T05:23:11.877Z,73.98
2022-10-19T05:27:14.461Z,73.50
2022-10-19T05:31:18.325Z,73.74
2022-10-19T05:35:22.674Z,73.94
2022-10-19T05:39:27.583Z,73.82
2022-10-19T05:43:30.155Z,73.57
2022-10-19T05:47:33.534Z,73.53
2022-10-19T05:51:36.151Z,73.72
2022-10-19T05:55:40.087Z,74.09
2022-10-19T05:59:42.697Z,73.95
2022-10-19T06:03:45.539Z,73.94
2022-10-19T06:07:48.138Z,74.00
2022-10-19T06:11:52.055Z,74.28
2022-10-19T06:15:54.658Z,73.99
2022-10-19T06:19:57.249Z,74.38
2022-10-19T06:24:02.240Z,73.91
2022-10-19T06:28:06.442Z,74.51
2022-10-19T06:32:09.021Z,74.43
2022-10-19T06:36:14.073Z,74.01
2022-10-19T06:40:16.755Z,74.04
2022-10-19T06:44:21.009Z,74.09
2022-10-19T06:48:24.096Z,74.02
2022-10-19T06:52:26.691Z,74.09
2022-10-19T06:56:29.331Z,73.76
2022-10-19T07:00:33.318Z,73.87
2022-10-19T07:04:35.943Z,74.09
2022-10-19T07:08:40.493Z,74.19
2022-10-19T07:12:43.091Z,73.95
2022-10-19T07:16:47.043Z,73.83
2022-10-19T07:20:55.351Z,73.93
2022-10-19T07:24:58.285Z,73.76
2022-10-19T07:29:01.187Z,73.46
2022-10-19T07:33:06.655Z,73.44
2022-10-19T07:37:09.332Z,73.11
2022-10-19T07:41:13.798Z,72.54
2022-10-19T07:45:16.473Z,71.70
2022-10-19T07:49:20.698Z,71.13
2022-10-19T07:53:23.934Z,70.31
2022-10-19T07:57:26.574Z,69.54
2022-10-19T08:01:30.931Z,69.95
2022-10-19T08:05:35.439Z,69.76
2022-10-19T08:09:52.636Z,70.00
2022-10-19T08:13:58.515Z,69.49
2022-10-19T08:18:01.730Z,68.90
2022-10-19T08:22:05.662Z,69.39
2022-10-19T08:26:08.519Z,69.44
2022-10-19T08:30:12.422Z,69.16
2022-10-19T08:34:16.440Z,68.89
2022-10-19T08:38:20.463Z,68.26
2022-10-19T08:42:29.406Z,67.44
2022-10-19T08:46:43.063Z,67.07
2022-10-19T08:50:46.735Z,66.10
2022-10-19T08:54:54.467Z,66.16
2022-10-19T08:59:13.726Z,66.01
2022-10-19T09:03:32.088Z,64.71
2022-10-19T09:07:47.570Z,64.74
2022-10-19T09:12:05.204Z,64.76
2022-10-19T09:16:12.919Z,64.34
2022-10-19T09:20:18.896Z,63.58
2022-10-19T09:24:29.883Z,62.86
2022-10-19T09:28:46.384Z,62.74
2022-10-19T09:32:50.823Z,63.06
2022-10-19T09:36:56.081Z,63.09
2022-10-19T09:40:59.764Z,63.22
2022-10-19T09:45:17.336Z,62.98
2022-10-19T09:49:38.481Z,62.42
2022-10-19T09:53:46.227Z,62.43
2022-10-19T09:57:50.432Z,61.36
2022-10-19T10:02:17.500Z,61.26
2022-10-19T10:06:22.358Z,60.32
2022-10-19T10:10:30.566Z,59.95
2022-10-19T10:14:35.887Z,59.80
2022-10-19T10:18:52.581Z,59.63
2022-10-19T10:22:58.500Z,59.12
2022-10-19T10:27:03.011Z,59.60
2022-10-19T10:31:08.733Z,59.96
2022-10-19T10:35:19.751Z,60.73
2022-10-19T10:39:24.729Z,59.45
2022-10-19T10:43:32.025Z,57.85
2022-10-19T10:47:35.115Z,57.06
2022-10-19T10:51:49.198Z,55.32
2022-10-19T10:55:57.481Z,52.77
2022-10-19T11:00:07.634Z,51.87
2022-10-19T11:04:14.987Z,51.64
2022-10-19T11:08:27.293Z,51.58
2022-10-19T11:12:36.960Z,50.84
2022-10-19T11:16:43.052Z,49.90
2022-10-19T11:20:53.394Z,49.96
2022-10-19T11:25:19.311Z,50.38
2022-10-19T11:29:39.027Z,52.02
2022-10-19T11:33:51.627Z,50.42
2022-10-19T11:38:24.145Z,49.58
2022-10-19T11:42:42.379Z,49.38
2022-10-19T11:46:54.787Z,49.75
2022-10-19T11:51:17.272Z,49.11
2022-10-19T11:55:34.226Z,48.58
2022-10-19T11:59:51.242Z,48.47
2022-10-19T12:04:21.352Z,47.47
2022-10-19T12:08:35.335Z,48.24
2022-10-19T12:12:41.680Z,47.06
2022-10-19T12:16:50.679Z,48.99
2022-10-19T12:20:57.223Z,48.54
2022-10-19T12:25:02.408Z,48.12
2022-10-19T12:29:08.377Z,48.23
2022-10-19T12:33:21.118Z,47.91
2022-10-19T12:37:29.402Z,47.99
2022-10-19T12:41:37.631Z,49.26
2022-10-19T12:45:44.412Z,48.62
2022-10-19T12:49:51.150Z,48.49
2022-10-19T12:54:09.417Z,49.52
2022-10-19T12:58:22.403Z,49.53
2022-10-19T13:02:29.498Z,49.28
2022-10-19T13:06:36.058Z,48.28
2022-10-19T13:10:38.731Z,48.33
2022-10-19T13:14:44.535Z,49.24
2022-10-19T13:19:21.181Z,48.89
2022-10-19T13:23:42.762Z,48.27
2022-10-19T13:27:46.414Z,48.63
2022-10-19T13:31:49.437Z,48.94
2022-10-19T13:36:07.769Z,49.04
2022-10-19T13:40:23.696Z,49.38
2022-10-19T13:44:33.775Z,49.42
2022-10-19T13:49:15.067Z,49.42
2022-10-19T13:53:30.499Z,48.97
2022-10-19T13:57:54.125Z,49.39
2022-10-19T14:02:23.676Z,49.27
2022-10-19T14:06:32.536Z,49.71
2022-10-19T14:10:56.262Z,50.72
2022-10-19T14:15:00.478Z,51.21
2022-10-19T14:19:03.174Z,51.95
2022-10-19T14:23:24.355Z,53.24
2022-10-19T14:27:27.121Z,52.86
2022-10-19T14:31:36.180Z,52.93
2022-10-19T14:35:41.207Z,52.60
2022-10-19T14:39:43.911Z,53.56
2022-10-19T14:43:46.621Z,54.25
2022-10-19T14:47:59.318Z,54.07
2022-10-19T14:52:04.880Z,54.01
2022-10-19T14:56:11.774Z,53.63
2022-10-19T15:00:19.277Z,53.59
2022-10-19T15:04:26.310Z,53.65
2022-10-19T15:08:37.537Z,54.01
2022-10-19T15:12:43.286Z,55.07
2022-10-19T15:16:51.974Z,55.96
2022-10-19T15:21:13.151Z,56.59
2022-10-19T15:25:36.805Z,57.09
2022-10-19T15:29:40.339Z,56.55
2022-10-19T15:33:46.641Z,57.01
2022-10-19T15:37:51.881Z,56.99
2022-10-19T15:41:54.617Z,57.14
2022-10-19T15:46:01.017Z,57.49
2022-10-19T15:50:03.956Z,57.41
2022-10-19T15:54:08.545Z,58.81
2022-10-19T15:58:12.334Z,59.31
2022-10-19T16:02:15.344Z,59.69
2022-10-19T16:06:19.327Z,60.06
2022-10-19T16:10:26.490Z,60.57
2022-10-19T16:14:31.962Z,61.17
2022-10-19T16:18:38.730Z,61.78
2022-10-19T16:22:41.360Z,62.47
2022-10-19T16:26:45.302Z,62.85
2022-10-19T16:30:53.043Z,63.33
2022-10-19T16:34:55.655Z,63.81
2022-10-19T16:39:00.934Z,63.69
2022-10-19T16:43:05.049Z,63.96
2022-10-19T16:47:07.676Z,64.13
2022-10-19T16:51:25.260Z,63.98
2022-10-19T16:55:29.791Z,64.29
2022-10-19T16:59:33.819Z,64.71
2022-10-19T17:03:36.679Z,64.86
2022-10-19T17:07:39.426Z,65.41
2022-10-19T17:11:42.139Z,66.00
2022-10-19T17:15:46.065Z,66.49
2022-10-19T17:19:48.777Z,66.87
2022-10-19T17:23:53.307Z,67.64
2022-10-19T17:27:55.897Z,67.54
2022-10-19T17:32:00.540Z,68.10
2022-10-19T17:36:08.804Z,68.14
2022-10-19T17:40:12.223Z,68.88
2022-10-19T17:44:15.221Z,69.39
2022-10-19T17:48:19.257Z,69.97
2022-10-19T17:52:21.875Z,70.82
2022-10-19T17:56:25.445Z,70.95
2022-10-19T18:00:28.063Z,71.36
2022-10-19T18:04:32.106Z,71.10
2022-10-19T18:08:36.874Z,70.98
2022-10-19T18:12:39.519Z,70.70
2022-10-19T18:16:52.572Z,71.00
2022-10-19T18:20:56.629Z,71.17
2022-10-19T18:24:59.318Z,71.32
2022-10-19T18:29:09.318Z,71.31
2022-10-19T18:33:11.975Z,71.08
2022-10-19T18:37:15.942Z,71.29
2022-10-19T18:41:18.799Z,71.85
2022-10-19T18:45:21.458Z,72.27
2022-10-19T18:49:24.919Z,72.60
2022-10-19T18:53:28.705Z,72.30
2022-10-19T18:57:31.987Z,72.32
2022-10-19T19:01:34.910Z,71.94
2022-10-19T19:05:37.591Z,72.36
2022-10-19T19:09:42.608Z,72.65
2022-10-19T19:13:49.242Z,72.89
2022-10-19T19:17:55.091Z,73.57
2022-10-19T19:21:58.115Z,73.92
2022-10-19T19:26:03.811Z,74.03
2022-10-19T19:30:07.202Z,74.53
2022-10-19T19:34:10.183Z,75.08
2022-10-19T19:38:13.520Z,74.84
2022-10-19T19:42:18.284Z,74.83
2022-10-19T19:46:21.051Z,75.11
2022-10-19T19:50:23.652Z,75.16
2022-10-19T19:54:26.320Z,75.66
2022-10-19T19:58:30.224Z,75.56
2022-10-19T20:02:37.121Z,75.51
2022-10-19T20:06:41.359Z,75.77
2022-10-19T20:10:44.464Z,76.30
2022-10-19T20:14:48.421Z,76.47
2022-10-19T20:18:52.959Z,75.85
2022-10-19T20:22:55.596Z,75.60
2022-10-19T20:26:58.232Z,76.06
2022-10-19T20:31:03.796Z,76.84
2022-10-19T20:35:07.738Z,75.97
2022-10-19T20:39:10.778Z,75.51
2022-10-19T20:43:15.171Z,75.41
2022-10-19T20:47:19.078Z,75.43
2022-10-19T20:51:27.464Z,75.87
2022-10-19T20:55:33.839Z,76.21
2022-10-19T20:59:38.440Z,75.74
